createdAt,value
2017-10-13T00:00:45.319Z,5.07
2017-10-13T00:03:12.882Z,7.53
2017-10-13T00:05:40.438Z,2.53
2017-10-13T00:08:08.009Z,4.63
2017-10-13T00:10:35.567Z,2.90
2017-10-13T00:13:03.088Z,3.20
2017-10-13T00:15:30.636Z,4.17
2017-10-13T00:17:58.146Z,3.03
2017-10-13T00:20:25.710Z,3.93
2017-10-13T00:22:53.260Z,3.80
2017-10-13T00:25:20.779Z,5.43
2017-10-13T00:27:48.382Z,3.60
2017-10-13T00:30:15.902Z,5.50
2017-10-13T00:32:43.423Z,2.80
2017-10-13T00:35:10.966Z,3.90
2017-10-13T00:37:38.492Z,4.13
2017-10-13T00:40:06.008Z,5.03
2017-10-13T00:42:33.571Z,6.07
2017-10-13T00:45:01.095Z,3.90
2017-10-13T00:47:28.645Z,3.40
2017-10-13T00:49:56.220Z,3.83
2017-10-13T00:52:23.762Z,3.53
2017-10-13T00:54:51.323Z,3.50
2017-10-13T00:57:18.864Z,3.20
2017-10-13T00:59:46.448Z,3.20
2017-10-13T01:02:13.994Z,3.30
2017-10-13T01:04:41.518Z,3.70
2017-10-13T01:07:09.086Z,3.90
2017-10-13T01:09:36.599Z,2.70
2017-10-13T01:12:04.120Z,3.57
2017-10-13T01:14:31.676Z,3.47
2017-10-13T01:16:59.259Z,2.77
2017-10-13T01:19:26.781Z,3.70
2017-10-13T01:21:54.368Z,3.07
2017-10-13T01:24:21.931Z,3.63
2017-10-13T01:26:49.438Z,2.67
2017-10-13T01:29:17.014Z,3.20
2017-10-13T01:31:44.618Z,3.80
2017-10-13T01:34:12.132Z,3.03
2017-10-13T01:36:39.700Z,4.27
2017-10-13T01:39:07.220Z,3.60
2017-10-13T01:41:34.957Z,3.50
2017-10-13T01:44:02.520Z,3.20
2017-10-13T01:46:30.031Z,2.40
2017-10-13T01:48:57.539Z,2.90
2017-10-13T01:51:25.085Z,2.83
2017-10-13T01:53:52.596Z,2.40
2017-10-13T01:56:20.147Z,2.80
2017-10-13T01:58:47.766Z,2.70
2017-10-13T02:01:15.292Z,3.50
2017-10-13T02:03:42.883Z,3.30
2017-10-13T02:06:10.442Z,2.93
2017-10-13T02:08:37.958Z,2.80
2017-10-13T02:11:05.525Z,2.70
2017-10-13T02:13:33.044Z,2.33
2017-10-13T02:16:00.556Z,2.50
2017-10-13T02:18:28.100Z,3.30
2017-10-13T02:20:55.616Z,3.30
2017-10-13T02:23:23.163Z,3.77
2017-10-13T02:25:50.739Z,8.40
2017-10-13T02:28:18.260Z,2.40
2017-10-13T02:30:45.777Z,2.73
2017-10-13T02:33:13.323Z,3.00
2017-10-13T02:35:40.845Z,3.70
2017-10-13T02:38:08.410Z,3.30
2017-10-13T02:40:35.971Z,3.63
2017-10-13T02:43:03.491Z,3.50
2017-10-13T02:45:31.184Z,2.87
2017-10-13T02:47:58.702Z,3.00
2017-10-13T02:50:26.223Z,3.73
2017-10-13T02:52:53.776Z,3.00
2017-10-13T02:55:21.316Z,3.40
2017-10-13T02:57:48.835Z,3.13
2017-10-13T03:00:16.435Z,2.60
2017-10-13T03:02:43.951Z,3.33
2017-10-13T03:05:11.563Z,2.50
2017-10-13T03:07:39.084Z,2.80
2017-10-13T03:10:06.616Z,2.67
2017-10-13T03:12:34.181Z,3.37
2017-10-13T03:15:01.744Z,3.03
2017-10-13T03:17:29.351Z,3.73
2017-10-13T03:19:57.018Z,2.90
2017-10-13T03:22:24.575Z,3.30
2017-10-13T03:24:52.092Z,3.40
2017-10-13T03:27:19.657Z,3.30
2017-10-13T03:29:47.171Z,2.57
2017-10-13T03:32:14.692Z,2.97
2017-10-13T03:34:42.252Z,2.80
2017-10-13T03:37:09.830Z,3.97
2017-10-13T03:39:37.349Z,3.37
2017-10-13T03:42:04.920Z,3.60
2017-10-13T03:44:32.432Z,3.80
2017-10-13T03:46:59.966Z,3.30
2017-10-13T03:49:27.523Z,4.20
2017-10-13T03:51:55.096Z,3.20
2017-10-13T03:54:22.666Z,3.67
2017-10-13T03:56:50.202Z,3.97
2017-10-13T03:59:17.751Z,3.70
2017-10-13T04:01:45.419Z,3.57
2017-10-13T04:04:12.937Z,3.73
2017-10-13T04:06:40.488Z,3.07
2017-10-13T04:09:08.101Z,3.40
2017-10-13T04:11:35.834Z,4.47
2017-10-13T04:14:03.423Z,3.20
2017-10-13T04:16:30.978Z,4.00
2017-10-13T04:18:58.533Z,3.67
2017-10-13T04:21:26.099Z,4.20
2017-10-13T04:23:53.673Z,4.33
2017-10-13T04:26:21.191Z,4.87
2017-10-13T04:28:48.740Z,3.60
2017-10-13T04:31:16.345Z,3.60
2017-10-13T04:33:43.896Z,4.10
2017-10-13T04:36:11.412Z,8.17
2017-10-13T04:38:38.973Z,5.77
2017-10-13T04:41:06.492Z,3.90
2017-10-13T04:43:34.134Z,3.80
2017-10-13T04:46:01.763Z,3.77
2017-10-13T04:48:29.279Z,4.23
2017-10-13T04:50:56.815Z,14.00
2017-10-13T04:53:24.371Z,6.70
2017-10-13T04:55:51.963Z,6.83
2017-10-13T04:58:19.476Z,4.10
2017-10-13T05:00:46.999Z,3.63
2017-10-13T05:03:14.559Z,9.27
2017-10-13T05:05:42.177Z,17.23
2017-10-13T05:08:09.712Z,12.97
2017-10-13T05:10:37.238Z,3.70
2017-10-13T05:13:04.729Z,4.00
2017-10-13T05:15:32.280Z,4.27
2017-10-13T05:17:59.842Z,3.77
2017-10-13T05:20:27.399Z,4.13
2017-10-13T05:22:54.914Z,4.17
2017-10-13T05:25:22.529Z,6.13
2017-10-13T05:27:50.023Z,5.13
2017-10-13T05:30:17.534Z,9.50
2017-10-13T05:32:45.064Z,5.60
2017-10-13T05:35:12.548Z,4.90
2017-10-13T05:37:40.114Z,5.67
2017-10-13T05:40:07.665Z,5.80
2017-10-13T05:42:35.157Z,6.93
2017-10-13T05:45:02.676Z,9.40
2017-10-13T05:47:30.195Z,6.47
2017-10-13T05:49:57.695Z,6.27
2017-10-13T05:52:25.225Z,5.40
2017-10-13T05:54:52.720Z,5.50
2017-10-13T05:57:20.212Z,4.63
2017-10-13T05:59:47.726Z,5.87
2017-10-13T06:02:15.214Z,4.90
2017-10-13T06:04:42.769Z,6.33
2017-10-13T06:07:10.266Z,5.23
2017-10-13T06:09:37.757Z,5.70
2017-10-13T06:12:05.325Z,5.30
2017-10-13T06:14:32.820Z,6.57
2017-10-13T06:17:00.303Z,5.50
2017-10-13T06:19:27.842Z,6.13
2017-10-13T06:21:55.335Z,5.43
2017-10-13T06:24:22.821Z,5.37
2017-10-13T06:26:50.371Z,5.77
2017-10-13T06:29:17.860Z,5.40
2017-10-13T06:31:45.407Z,5.43
2017-10-13T06:34:12.894Z,4.87
2017-10-13T06:36:40.391Z,6.43
2017-10-13T06:39:07.922Z,4.10
2017-10-13T06:41:36.328Z,5.80
2017-10-13T06:44:03.820Z,5.57
2017-10-13T06:46:31.379Z,5.10
2017-10-13T06:48:58.941Z,4.70
2017-10-13T06:51:26.478Z,4.40
2017-10-13T06:53:53.973Z,5.30
2017-10-13T06:56:21.509Z,5.83
2017-10-13T06:58:49.001Z,7.33
2017-10-13T07:01:16.483Z,6.00
2017-10-13T07:03:44.020Z,6.30
2017-10-13T07:06:11.526Z,4.47
2017-10-13T07:08:39.016Z,4.90
2017-10-13T07:11:06.569Z,5.80
2017-10-13T07:13:34.058Z,4.90
2017-10-13T07:16:01.560Z,5.47
2017-10-13T07:18:29.119Z,5.53
2017-10-13T07:20:56.616Z,4.17
2017-10-13T07:23:24.134Z,5.20
2017-10-13T07:25:51.671Z,5.23
2017-10-13T07:28:19.221Z,4.90
2017-10-13T07:30:46.709Z,5.47
2017-10-13T07:33:14.240Z,4.13
2017-10-13T07:35:41.726Z,4.80
2017-10-13T07:38:09.289Z,4.80
2017-10-13T07:40:36.849Z,4.30
2017-10-13T07:43:04.335Z,4.83
2017-10-13T07:45:31.821Z,5.50
2017-10-13T07:47:59.372Z,5.27
2017-10-13T07:50:26.863Z,5.00
2017-10-13T07:52:54.351Z,5.90
2017-10-13T07:55:21.868Z,5.03
2017-10-13T07:57:49.422Z,7.17
2017-10-13T08:00:17.008Z,5.53
2017-10-13T08:02:44.593Z,4.20
2017-10-13T08:05:12.136Z,4.70
2017-10-13T08:07:39.619Z,5.70
2017-10-13T08:10:07.144Z,5.63
2017-10-13T08:12:34.633Z,7.40
2017-10-13T08:15:02.116Z,5.83
2017-10-13T08:17:29.655Z,6.73
2017-10-13T08:19:57.145Z,5.27
2017-10-13T08:22:24.640Z,6.57
2017-10-13T08:24:52.198Z,5.93
2017-10-13T08:27:19.699Z,5.37
2017-10-13T08:29:47.217Z,6.03
2017-10-13T08:32:14.753Z,5.53
2017-10-13T08:34:42.248Z,5.60
2017-10-13T08:37:09.730Z,6.20
2017-10-13T08:39:37.352Z,6.00
2017-10-13T08:42:04.909Z,7.00
2017-10-13T08:44:32.396Z,5.57
2017-10-13T08:47:00.026Z,5.50
2017-10-13T08:49:27.691Z,6.73
2017-10-13T08:51:55.256Z,6.00
2017-10-13T08:54:22.751Z,5.60
2017-10-13T08:56:50.233Z,6.90
2017-10-13T08:59:17.783Z,6.30
2017-10-13T09:01:45.271Z,5.50
2017-10-13T09:04:12.767Z,5.00
2017-10-13T09:06:40.309Z,5.57
2017-10-13T09:09:07.795Z,4.83
2017-10-13T09:11:36.036Z,5.73
2017-10-13T09:14:03.580Z,4.60
2017-10-13T09:16:31.073Z,5.23
2017-10-13T09:18:58.562Z,5.80
2017-10-13T09:21:26.093Z,5.70
2017-10-13T09:23:53.583Z,6.97
2017-10-13T09:26:21.062Z,5.77
2017-10-13T09:28:48.580Z,5.67
2017-10-13T09:31:16.199Z,6.00
2017-10-13T09:33:43.748Z,7.30
2017-10-13T09:36:11.235Z,7.80
2017-10-13T09:38:38.740Z,7.17
2017-10-13T09:41:06.323Z,6.60
2017-10-13T09:43:33.807Z,6.90
2017-10-13T09:46:01.296Z,6.00
2017-10-13T09:48:28.819Z,6.60
2017-10-13T09:50:56.382Z,7.90
2017-10-13T09:53:23.860Z,7.40
2017-10-13T09:55:51.348Z,6.57
2017-10-13T09:58:18.904Z,6.70
2017-10-13T10:00:46.394Z,6.67
2017-10-13T10:03:13.876Z,5.80
2017-10-13T10:05:41.417Z,7.10
2017-10-13T10:08:08.919Z,5.90
2017-10-13T10:10:36.404Z,6.17
2017-10-13T10:13:03.943Z,5.20
2017-10-13T10:15:31.421Z,5.20
2017-10-13T10:17:59.013Z,5.37
2017-10-13T10:20:26.547Z,5.10
2017-10-13T10:22:54.044Z,6.50
2017-10-13T10:25:21.531Z,4.87
2017-10-13T10:27:49.145Z,4.70
2017-10-13T10:30:16.635Z,5.00
2017-10-13T10:32:44.187Z,4.47
2017-10-13T10:35:11.684Z,4.57
2017-10-13T10:37:39.171Z,5.33
2017-10-13T10:40:06.729Z,5.23
2017-10-13T10:42:34.229Z,4.10
2017-10-13T10:45:01.711Z,4.70
2017-10-13T10:47:29.272Z,3.80
2017-10-13T10:49:56.781Z,3.60
2017-10-13T10:52:24.259Z,3.60
2017-10-13T10:54:51.787Z,5.27
2017-10-13T10:57:19.289Z,4.47
2017-10-13T10:59:46.780Z,4.07
2017-10-13T11:02:14.309Z,4.13
2017-10-13T11:04:41.833Z,4.03
2017-10-13T11:07:09.333Z,2.97
2017-10-13T11:09:36.859Z,3.40
2017-10-13T11:12:04.345Z,3.13
2017-10-13T11:14:31.832Z,3.03
2017-10-13T11:16:59.367Z,3.70
2017-10-13T11:19:26.871Z,2.30
2017-10-13T11:21:54.360Z,2.20
2017-10-13T11:24:21.903Z,2.90
2017-10-13T11:26:49.393Z,2.80
2017-10-13T11:29:16.889Z,3.50
2017-10-13T11:31:44.408Z,3.03
2017-10-13T11:34:11.900Z,3.40
2017-10-13T11:36:39.438Z,7.40
2017-10-13T11:39:06.951Z,4.70
2017-10-13T11:41:34.522Z,6.60
2017-10-13T11:44:02.164Z,3.30
2017-10-13T11:46:29.648Z,3.90
2017-10-13T11:48:57.186Z,6.77
2017-10-13T11:51:24.729Z,3.93
2017-10-13T11:53:52.224Z,5.77
2017-10-13T11:56:19.708Z,3.97
2017-10-13T11:58:47.323Z,4.60
2017-10-13T12:01:14.809Z,4.43
2017-10-13T12:03:42.303Z,5.10
2017-10-13T12:06:09.866Z,3.13
2017-10-13T12:08:37.371Z,3.73
2017-10-13T12:11:04.905Z,3.87
2017-10-13T12:13:32.457Z,3.73
2017-10-13T12:15:59.940Z,4.00
2017-10-13T12:18:27.473Z,3.40
2017-10-13T12:20:54.979Z,4.20
2017-10-13T12:23:22.475Z,3.23
2017-10-13T12:25:50.026Z,5.30
2017-10-13T12:28:17.516Z,4.63
2017-10-13T12:30:45.009Z,4.90
2017-10-13T12:33:12.556Z,5.60
2017-10-13T12:35:40.082Z,5.20
2017-10-13T12:38:07.577Z,4.67
2017-10-13T12:40:35.108Z,5.17
2017-10-13T12:43:02.596Z,5.63
2017-10-13T12:45:30.127Z,4.70
2017-10-13T12:47:57.619Z,4.50
2017-10-13T12:50:25.227Z,4.47
2017-10-13T12:52:52.729Z,4.73
2017-10-13T12:55:20.215Z,5.97
2017-10-13T12:57:47.754Z,5.73
2017-10-13T13:00:15.238Z,5.43
2017-10-13T13:02:42.721Z,5.57
2017-10-13T13:05:10.280Z,4.30
2017-10-13T13:07:37.850Z,4.93
2017-10-13T13:10:05.387Z,4.50
2017-10-13T13:12:32.974Z,4.70
2017-10-13T13:15:00.518Z,5.30
2017-10-13T13:17:28.017Z,5.93
2017-10-13T13:19:55.553Z,5.90
2017-10-13T13:22:23.048Z,6.70
2017-10-13T13:24:50.532Z,6.60
2017-10-13T13:27:18.051Z,5.30
2017-10-13T13:29:45.579Z,4.97
2017-10-13T13:32:13.124Z,5.20
2017-10-13T13:34:40.622Z,5.20
2017-10-13T13:37:08.235Z,5.10
2017-10-13T13:39:35.720Z,5.80
2017-10-13T13:42:03.219Z,5.27
2017-10-13T13:44:30.750Z,5.50
2017-10-13T13:46:58.238Z,4.80
2017-10-13T13:49:25.775Z,4.93
2017-10-13T13:51:53.263Z,3.33
2017-10-13T13:54:20.821Z,5.50
2017-10-13T13:56:48.399Z,5.40
2017-10-13T13:59:15.970Z,5.67
2017-10-13T14:01:43.494Z,5.33
2017-10-13T14:04:11.092Z,5.90
2017-10-13T14:06:38.587Z,5.07
2017-10-13T14:09:06.097Z,4.93
2017-10-13T14:11:33.636Z,4.90
2017-10-13T14:14:01.118Z,5.43
2017-10-13T14:16:28.605Z,5.33
2017-10-13T14:18:56.149Z,7.57
2017-10-13T14:21:23.652Z,5.60
2017-10-13T14:23:51.147Z,5.43
2017-10-13T14:26:18.679Z,6.37
2017-10-13T14:28:46.180Z,5.27
2017-10-13T14:31:13.667Z,5.40
2017-10-13T14:33:41.193Z,6.47
2017-10-13T14:36:08.702Z,5.57
2017-10-13T14:38:36.193Z,7.70
2017-10-13T14:41:03.733Z,7.70
2017-10-13T14:43:31.235Z,7.13
2017-10-13T14:45:58.780Z,4.10
2017-10-13T14:48:26.340Z,6.37
2017-10-13T14:50:53.876Z,4.73
2017-10-13T14:53:21.369Z,4.70
2017-10-13T14:55:48.852Z,6.10
2017-10-13T14:58:16.412Z,5.30
2017-10-13T15:00:43.924Z,6.03
2017-10-13T15:03:11.420Z,4.83
2017-10-13T15:05:38.945Z,4.67
2017-10-13T15:08:06.445Z,5.60
2017-10-13T15:10:33.972Z,10.03
2017-10-13T15:13:01.503Z,5.23
2017-10-13T15:15:29.059Z,6.90
2017-10-13T15:17:56.551Z,9.47
2017-10-13T15:20:24.108Z,6.20
2017-10-13T15:22:51.658Z,5.60
2017-10-13T15:25:24.807Z,8.57
2017-10-13T15:27:58.094Z,7.03
2017-10-13T15:30:31.273Z,7.50
2017-10-13T15:33:04.460Z,9.77
2017-10-13T15:35:37.694Z,5.73
2017-10-13T15:38:11.711Z,6.40
2017-10-13T15:40:44.805Z,6.90
2017-10-13T15:43:18.092Z,5.97
2017-10-13T15:45:51.195Z,5.70
2017-10-13T15:48:24.422Z,5.70
2017-10-13T15:50:57.601Z,7.33
2017-10-13T15:53:25.135Z,5.73
2017-10-13T15:55:52.695Z,6.70
2017-10-13T15:58:20.194Z,11.23
2017-10-13T16:00:47.820Z,11.20
2017-10-13T16:03:15.352Z,8.93
2017-10-13T16:05:42.944Z,10.77
2017-10-13T16:08:10.432Z,9.70
2017-10-13T16:10:38.128Z,12.93
2017-10-13T16:13:05.635Z,10.17
2017-10-13T16:15:33.177Z,10.80
2017-10-13T16:18:00.672Z,13.50
2017-10-13T16:20:28.172Z,10.43
2017-10-13T16:25:29.555Z,9.67
2017-10-13T16:27:57.218Z,9.93
2017-10-13T16:30:24.707Z,8.70
2017-10-13T16:32:52.196Z,11.30
2017-10-13T16:35:19.889Z,12.07
2017-10-13T16:37:47.388Z,8.93
2017-10-13T16:40:14.873Z,8.70
2017-10-13T16:42:42.412Z,7.20
2017-10-13T16:45:09.907Z,12.53
2017-10-13T16:47:37.395Z,12.67
2017-10-13T16:50:04.943Z,8.80
2017-10-13T16:52:32.520Z,12.20
2017-10-13T16:55:00.063Z,9.73
2017-10-13T16:57:27.600Z,10.83
2017-10-13T16:59:55.083Z,9.10
2017-10-13T17:02:22.578Z,9.63
2017-10-13T17:04:50.129Z,9.53
2017-10-13T17:07:17.656Z,10.73
2017-10-13T17:09:45.147Z,8.80
2017-10-13T17:12:12.687Z,11.60
2017-10-13T17:14:40.349Z,8.23
2017-10-13T17:17:07.851Z,9.00
2017-10-13T17:19:35.437Z,10.27
2017-10-13T17:22:02.925Z,11.10
2017-10-13T17:24:30.416Z,12.83
2017-10-13T17:26:57.949Z,11.37
2017-10-13T17:29:25.443Z,12.47
2017-10-13T17:31:52.937Z,11.67
2017-10-13T17:34:20.481Z,11.57
2017-10-13T17:36:47.967Z,13.20
2017-10-13T17:39:15.470Z,10.03
2017-10-13T17:41:43.079Z,9.43
2017-10-13T17:44:10.653Z,10.30
2017-10-13T17:46:38.152Z,10.07
2017-10-13T17:49:05.704Z,12.70
2017-10-13T17:51:33.215Z,11.20
2017-10-13T17:54:00.733Z,31.57
2017-10-13T17:56:28.278Z,17.20
2017-10-13T17:58:55.792Z,15.37
2017-10-13T18:01:23.296Z,16.40
2017-10-13T18:03:50.906Z,11.17
2017-10-13T18:06:18.484Z,12.00
2017-10-13T18:08:46.165Z,9.30
2017-10-13T18:11:13.652Z,9.53
2017-10-13T18:13:41.244Z,11.50
2017-10-13T18:16:08.780Z,11.13
2017-10-13T18:18:36.316Z,9.93
2017-10-13T18:21:03.832Z,12.33
2017-10-13T18:23:31.323Z,16.73
2017-10-13T18:25:58.864Z,10.87
2017-10-13T18:28:26.362Z,13.63
2017-10-13T18:30:53.910Z,14.13
2017-10-13T18:33:21.452Z,20.40
2017-10-13T18:35:48.977Z,11.53
2017-10-13T18:38:16.536Z,10.33
2017-10-13T18:40:44.095Z,15.60
2017-10-13T18:43:11.657Z,15.10
2017-10-13T18:45:39.208Z,13.80
2017-10-13T18:48:06.771Z,10.20
2017-10-13T18:50:34.268Z,11.47
2017-10-13T18:53:01.788Z,13.73
2017-10-13T18:55:29.352Z,10.50
2017-10-13T18:57:56.849Z,9.70
2017-10-13T19:00:24.340Z,12.30
2017-10-13T19:02:51.938Z,11.47
2017-10-13T19:05:19.448Z,10.50
2017-10-13T19:07:46.968Z,12.10
2017-10-13T19:10:14.505Z,11.90
2017-10-13T19:12:42.007Z,10.87
2017-10-13T19:15:09.501Z,12.10
2017-10-13T19:17:37.074Z,10.80
2017-10-13T19:20:04.600Z,19.27
2017-10-13T19:22:32.096Z,12.13
2017-10-13T19:24:59.594Z,16.50
2017-10-13T19:27:27.144Z,13.07
2017-10-13T19:29:54.644Z,11.67
2017-10-13T19:32:22.139Z,11.60
2017-10-13T19:34:49.679Z,12.63
2017-10-13T19:37:17.174Z,11.57
2017-10-13T19:39:44.696Z,11.80
2017-10-13T19:42:12.245Z,17.83
2017-10-13T19:44:39.748Z,47.57
2017-10-13T19:47:07.237Z,39.13
2017-10-13T19:49:34.935Z,33.73
2017-10-13T19:52:02.427Z,33.00
2017-10-13T19:54:29.925Z,42.63
2017-10-13T19:56:57.453Z,27.00
2017-10-13T19:59:24.939Z,20.57
2017-10-13T20:01:52.472Z,21.60
2017-10-13T20:04:19.968Z,29.30
2017-10-13T20:06:47.543Z,27.00
2017-10-13T20:09:15.103Z,40.23
2017-10-13T20:11:42.680Z,48.40
2017-10-13T20:14:10.176Z,18.83
2017-10-13T20:16:37.668Z,50.40
2017-10-13T20:19:05.203Z,23.43
2017-10-13T20:21:32.705Z,40.93
2017-10-13T20:24:00.271Z,34.27
2017-10-13T20:26:27.831Z,24.77
2017-10-13T20:28:55.371Z,32.97
2017-10-13T20:31:22.865Z,27.80
2017-10-13T20:33:50.386Z,20.00
2017-10-13T20:36:17.925Z,35.20
2017-10-13T20:38:46.343Z,35.27
2017-10-13T20:41:13.876Z,49.90
2017-10-13T20:43:41.395Z,41.17
2017-10-13T20:46:08.884Z,39.83
2017-10-13T20:48:36.426Z,21.67
2017-10-13T20:51:04.016Z,35.93
2017-10-13T20:53:31.517Z,26.20
2017-10-13T20:55:59.141Z,30.13
2017-10-13T20:58:26.644Z,31.67
2017-10-13T21:00:54.144Z,19.20
2017-10-13T21:03:21.716Z,21.73
2017-10-13T21:05:49.226Z,64.33
2017-10-13T21:08:16.722Z,16.03
2017-10-13T21:10:44.269Z,23.97
2017-10-13T21:13:11.775Z,66.73
2017-10-13T21:15:39.279Z,29.20
2017-10-13T21:18:06.840Z,29.90
2017-10-13T21:20:34.347Z,52.03
2017-10-13T21:23:01.836Z,40.60
2017-10-13T21:25:29.359Z,40.03
2017-10-13T21:27:56.856Z,20.90
2017-10-13T21:30:24.378Z,18.67
2017-10-13T21:32:51.872Z,21.90
2017-10-13T21:35:19.473Z,16.70
2017-10-13T21:37:46.974Z,32.40
2017-10-13T21:40:14.520Z,27.47
2017-10-13T21:42:42.030Z,84.27
2017-10-13T21:45:09.544Z,60.40
2017-10-13T21:47:37.074Z,54.57
2017-10-13T21:50:04.660Z,25.20
2017-10-13T21:52:32.161Z,21.87
2017-10-13T21:54:59.780Z,33.53
2017-10-13T21:57:27.312Z,54.57
2017-10-13T21:59:54.853Z,40.17
2017-10-13T22:02:22.435Z,28.53
2017-10-13T22:04:55.700Z,42.90
2017-10-13T22:07:23.195Z,22.63
2017-10-13T22:09:50.736Z,45.47
2017-10-13T22:12:18.233Z,24.30
2017-10-13T22:14:45.736Z,18.70
2017-10-13T22:17:13.325Z,24.87
2017-10-13T22:19:40.812Z,39.70
2017-10-13T22:22:08.307Z,38.93
2017-10-13T22:24:35.832Z,22.87
2017-10-13T22:27:03.346Z,32.10
2017-10-13T22:29:30.871Z,28.83
2017-10-13T22:31:58.471Z,22.70
2017-10-13T22:34:26.009Z,60.07
2017-10-13T22:36:53.509Z,57.17
2017-10-13T22:39:21.008Z,56.10
2017-10-13T22:41:48.563Z,103.13
2017-10-13T22:44:16.055Z,39.67
2017-10-13T22:46:43.614Z,39.03
2017-10-13T22:49:11.156Z,57.03
2017-10-13T22:51:38.693Z,39.20
2017-10-13T22:54:06.232Z,28.47
2017-10-13T22:56:33.738Z,17.67
2017-10-13T22:59:01.229Z,26.67
2017-10-13T23:01:28.773Z,21.90
2017-10-13T23:03:56.270Z,23.13
2017-10-13T23:06:23.776Z,17.30
2017-10-13T23:08:51.312Z,23.50
2017-10-13T23:11:18.898Z,25.97
2017-10-13T23:13:46.404Z,20.80
2017-10-13T23:16:13.939Z,17.60
2017-10-13T23:18:41.429Z,23.17
2017-10-13T23:21:09.029Z,19.10
2017-10-13T23:23:36.589Z,27.67
2017-10-13T23:26:04.090Z,38.30
2017-10-13T23:28:31.595Z,64.90
2017-10-13T23:30:59.168Z,31.37
2017-10-13T23:33:26.746Z,29.70
2017-10-13T23:35:54.244Z,34.70
2017-10-13T23:38:21.780Z,80.97
2017-10-13T23:40:49.278Z,16.87
2017-10-13T23:43:16.780Z,21.40
2017-10-13T23:45:44.318Z,21.13
2017-10-13T23:48:11.878Z,25.47
2017-10-13T23:50:39.378Z,21.60
2017-10-13T23:53:06.996Z,16.93
2017-10-13T23:55:34.494Z,22.93
2017-10-13T23:58:02.047Z,22.00
